Date,TemperatureHighF,TemperatureAvgF,TemperatureLowF,DewpointHighF,DewpointAvgF,DewpointLowF,HumidityHigh,HumidityAvg,HumidityLow,PressureMaxIn,PressureMinIn,WindSpeedMaxMPH,WindSpeedAvgMPH,GustSpeedMaxMPH,PrecipitationSumIn
2013-1-1,48,42,36,48,39,20,100,88,46,30.12,29.94,4,0,4,1.04
2013-1-2,46,39,36,46,37,32,100,92,80,30.12,29.94,4,0,4,0.29
2013-1-3,38,34,23,36,29,20,100,84,50,30.30,30.06,6,0,6,1.12
2013-1-4,43,28,19,27,16,1,100,68,20,30.33,30.24,6,1,6,0.29
2013-1-5,50,34,19,36,20,13,95,62,23,30.33,30.18,4,1,4,0.29
2013-1-6,45,37,31,38,30,20,100,78,42,30.24,30.06,7,1,7,0.29
2013-1-7,54,33,21,29,20,11,100,64,20,30.36,30.18,6,1,6,0.29
2013-1-8,56,38,23,43,29,18,100,74,38,30.36,30.27,10,1,10,0.29
2013-1-9,59,51,43,51,46,42,100,87,59,30.41,30.30,4,0,4,0.29
2013-1-10,64,50,44,60,45,34,100,88,35,30.42,30.21,27,2,27,0.00
2013-1-11,64,61,58,60,50,41,100,68,46,30.24,30.12,27,3,27,0.33
2013-1-12,70,63,57,63,51,40,100,69,35,30.18,30.06,22,2,22,0.04
2013-1-13,66,64,62,54,45,33,76,52,45,30.12,30.03,22,4,22,0.34
2013-1-14,63,55,45,61,52,44,100,92,61,30.18,30.03,13,1,13,1.66
2013-1-15,63,57,46,59,53,46,100,87,60,30.12,29.94,15,1,15,2.15
2013-1-16,63,57,52,59,53,48,100,89,58,30.03,29.91,14,1,14,1.25
2013-1-17,55,45,31,53,43,25,100,92,46,30.21,29.68,0,0,0,1.28
2013-1-18,51,34,25,30,23,11,97,69,21,30.44,30.18,4,1,4,0.00
2013-1-19,54,35,22,30,19,5,100,61,15,30.41,30.18,8,1,230,0.00
2013-1-20,55,37,24,32,22,10,100,63,19,30.21,30.06,6,1,6,0.00
2013-1-21,48,34,22,30,14,-1,99,54,20,30.12,30.06,14,2,14,0.00
2013-1-22,36,28,22,2,-6,-10,31,22,19,30.24,30.09,10,3,10,7.09
2013-1-23,46,32,25,19,4,-9,77,32,20,30.30,30.12,8,1,8,7.09
2013-1-24,44,36,21,31,17,-7,87,48,15,30.30,30.06,12,3,12,0.00
2013-1-25,33,28,21,33,18,-1,100,69,27,30.30,30.06,5,1,5,0.04
2013-1-26,50,35,26,34,30,19,100,86,31,30.27,30.12,4,0,4,0.00
2013-1-27,52,37,22,30,21,-46,99,60,29,30.41,30.27,8,1,8,0.00
2013-1-28,61,47,38,44,30,18,99,56,40,30.39,30.24,11,1,11,7.13
2013-1-29,65,58,36,62,53,36,100,84,47,30.27,29.97,27,4,27,0.09
2013-1-30,65,57,38,63,55,38,100,96,79,30.00,29.62,30,4,30,4.27
2013-1-31,40,34,29,38,26,21,100,72,58,30.09,29.74,13,3,13,0.04